Connexion S'enregistrer

Connexion à votre compte

Identifiant
Mot de passe
Maintenir la connexion active sur ce site

Créer un compte

Pour valider ce formulaire, vous devez remplir tous les champs.
Nom
Identifiant
Mot de passe
Répétez le mot de passe
Adresse e-mail
Répétez l'adresse e-mail

METAR/TAF de Chambéry

[source: ADDS]
METAR
LFLB 112000Z AUTO 33004KT 280V020 CAVOK 04/00 Q1022 NOSIG =
TAF LFLB 111700Z 1118/1218 36008KT CAVOK PROB40 TEMPO 1203/1209 4000 BR BKN005
TAF
TAF LFLB 111700Z 1118/1218 36008KT CAVOK PROB40 TEMPO 1203/1209 4000 BR BKN005 =
SR / SS: 07:06 / 15:52 UTC (Lever/Coucher du soleil le 2018-12-11)

 

Webcam de l'Aéroclub - Parking Lima et SW (réactualisation : 5min)

Cliquer ici pour une animation sur les 3 dernières heures / Cliquer sur l'image pour l'agrandir dans une nouvelle fenêtre

 

Webcam de l'Aéroclub - Manche à air et WA (réactualisation : 5min)

Cliquer ici pour une animation sur les 3 dernières heures / Cliquer sur l'image pour l'agrandir dans une nouvelle fenêtre

 

JSN Boot template designed by JoomlaShine.com